Time;durP1;ratioP1;P1;durP2;ratioP2;P2;SDS_P1;SDS_P2;PMS_P1;PMS_P2;Temp;Humidity;BMP_temperature;BMP_pressure;BME280_temperature;BME280_humidity;BME280_pressure;Samples;Min_cycle;Max_cycle;Signal;HPM_P1;HPM_P2
2022/05/05 00:00:41;;;;;;;10.97;5.73;;;8.80;99.90;;;;;;5042931;28;20358;-70
2022/05/05 00:03:06;;;;;;;11.10;4.97;;;8.80;99.90;;;;;;5024861;28;20051;-70
2022/05/05 00:05:32;;;;;;;10.13;5.30;;;8.80;99.90;;;;;;5044610;28;20493;-71
2022/05/05 00:07:58;;;;;;;12.70;5.67;;;8.80;99.90;;;;;;5032477;28;20520;-70
2022/05/05 00:15:51;;;;;;;9.80;5.00;;;8.80;99.90;;;;;;5042914;28;20424;-70
2022/05/05 00:18:17;;;;;;;14.37;5.07;;;8.70;99.90;;;;;;5041895;28;20044;-70
2022/05/05 00:20:43;;;;;;;11.27;5.47;;;8.70;99.90;;;;;;5036019;28;20544;-70
2022/05/05 00:23:09;;;;;;;6.90;4.73;;;8.70;99.90;;;;;;5036179;28;20029;-70
2022/05/05 00:28:07;;;;;;;11.63;5.65;;;8.70;99.90;;;;;;5015833;28;20496;-68
2022/05/05 00:30:33;;;;;;;10.57;5.13;;;8.70;99.90;;;;;;5023047;28;20037;-68
2022/05/05 00:32:58;;;;;;;14.37;5.40;;;8.70;99.90;;;;;;5024323;28;20041;-68
2022/05/05 00:35:24;;;;;;;9.17;5.03;;;8.60;99.90;;;;;;5025419;28;20497;-68
2022/05/05 00:37:49;;;;;;;12.43;5.20;;;8.60;99.90;;;;;;5006528;28;21697;-68
2022/05/05 00:40:15;;;;;;;11.37;5.23;;;8.60;99.90;;;;;;5017650;28;20408;-68
2022/05/05 00:42:41;;;;;;;9.73;5.07;;;8.60;99.90;;;;;;5018661;28;20036;-68
2022/05/05 00:45:07;;;;;;;12.73;5.43;;;8.70;99.90;;;;;;5018815;28;20046;-68
2022/05/05 00:47:33;;;;;;;11.75;5.28;;;8.60;99.90;;;;;;5024745;28;20044;-67
2022/05/05 00:49:59;;;;;;;10.33;5.37;;;8.60;99.90;;;;;;4998072;28;20037;-68
2022/05/05 00:52:29;;;;;;;11.52;5.25;;;8.60;99.90;;;;;;5015979;28;20038;-68
2022/05/05 00:54:56;;;;;;;9.52;5.43;;;8.60;99.90;;;;;;5024478;28;20037;-68
2022/05/05 00:57:23;;;;;;;10.80;6.07;;;8.60;99.90;;;;;;5015262;28;20060;-68
2022/05/05 00:59:50;;;;;;;10.75;4.93;;;8.60;99.90;;;;;;5027545;28;20060;-67
2022/05/05 01:02:16;;;;;;;13.95;5.63;;;8.60;99.90;;;;;;5005975;28;20064;-68
2022/05/05 01:04:42;;;;;;;13.50;5.30;;;8.60;99.90;;;;;;5026068;28;20052;-68
2022/05/05 01:07:08;;;;;;;11.32;5.63;;;8.60;99.90;;;;;;5013609;28;20156;-68
2022/05/05 01:09:35;;;;;;;9.98;4.22;;;8.60;99.90;;;;;;5017084;28;20037;-68
2022/05/05 01:12:02;;;;;;;11.05;5.60;;;8.60;99.90;;;;;;5014589;28;20052;-68
2022/05/05 01:14:29;;;;;;;9.80;5.05;;;8.60;99.90;;;;;;5022843;28;20055;-67
2022/05/05 01:16:54;;;;;;;11.75;4.55;;;8.60;99.90;;;;;;5020447;28;20124;-70
2022/05/05 01:19:20;;;;;;;12.43;4.90;;;8.60;99.90;;;;;;5020948;28;20037;-66
2022/05/05 01:21:53;;;;;;;12.30;5.30;;;8.60;99.90;;;;;;5014365;28;20128;-67
2022/05/05 01:28:10;;;;;;;9.48;4.78;;;8.60;99.90;;;;;;5012691;28;20587;-65
2022/05/05 01:29:51;;;;;;;16.05;5.35;;;8.60;99.90;;;;;;5019995;28;20041;-65
2022/05/05 01:32:17;;;;;;;10.07;4.40;;;8.60;99.90;;;;;;5023404;28;20080;-65
2022/05/05 01:34:42;;;;;;;21.13;5.30;;;8.60;99.90;;;;;;5021307;28;20060;-67
2022/05/05 01:37:08;;;;;;;9.23;4.70;;;8.60;99.90;;;;;;5024778;28;20128;-66
2022/05/05 01:39:34;;;;;;;11.00;4.87;;;8.60;99.90;;;;;;4997862;28;20568;-65
2022/05/05 01:41:59;;;;;;;12.63;5.00;;;8.60;99.90;;;;;;5018907;28;20116;-65
2022/05/05 01:44:25;;;;;;;7.20;4.27;;;8.60;99.90;;;;;;5010186;28;20033;-67
2022/05/05 01:46:53;;;;;;;13.80;4.90;;;8.50;99.90;;;;;;5022960;28;20191;-65
2022/05/05 01:49:18;;;;;;;9.65;4.25;;;8.50;99.90;;;;;;5025433;28;20482;-66
2022/05/05 01:51:44;;;;;;;14.53;5.20;;;8.50;99.90;;;;;;5016771;28;20041;-65
2022/05/05 01:54:10;;;;;;;10.60;4.78;;;8.50;99.90;;;;;;5022831;28;20041;-66
2022/05/05 01:56:38;;;;;;;11.23;4.17;;;8.50;99.90;;;;;;5020675;28;20708;-66
2022/05/05 01:59:04;;;;;;;11.73;4.70;;;8.50;99.90;;;;;;5023693;28;20037;-65
2022/05/05 02:01:29;;;;;;;11.07;5.03;;;8.40;99.90;;;;;;5018671;28;20103;-66
2022/05/05 02:03:55;;;;;;;11.03;4.93;;;8.40;99.90;;;;;;5018945;28;20045;-65
2022/05/05 02:06:21;;;;;;;10.00;4.33;;;8.40;99.90;;;;;;5018411;28;20128;-66
2022/05/05 02:08:48;;;;;;;10.50;5.15;;;8.40;99.90;;;;;;5013731;28;20037;-65
2022/05/05 02:11:14;;;;;;;8.02;4.03;;;8.40;99.90;;;;;;5014466;28;20034;-66
2022/05/05 02:13:39;;;;;;;14.20;4.47;;;8.40;99.90;;;;;;5017365;28;20059;-65
2022/05/05 02:16:05;;;;;;;12.90;5.80;;;8.30;99.90;;;;;;5024526;28;20117;-65
2022/05/05 02:18:31;;;;;;;10.17;4.57;;;8.30;99.90;;;;;;5023754;28;20072;-65
2022/05/05 02:20:56;;;;;;;11.57;5.40;;;8.20;99.90;;;;;;5013403;28;20081;-66
2022/05/05 02:23:22;;;;;;;8.00;4.43;;;8.20;99.90;;;;;;5023679;28;20041;-65
2022/05/05 02:25:48;;;;;;;14.02;7.38;;;8.20;99.90;;;;;;5021150;28;20057;-66
2022/05/05 02:28:14;;;;;;;8.43;4.43;;;8.10;99.90;;;;;;5024997;28;20030;-65
2022/05/05 02:30:39;;;;;;;10.50;4.57;;;8.10;99.90;;;;;;5015928;28;20075;-65
2022/05/05 02:33:05;;;;;;;11.13;5.10;;;8.10;99.90;;;;;;5021198;28;20038;-66
2022/05/05 02:35:30;;;;;;;7.53;4.37;;;8.10;99.90;;;;;;5018650;28;20029;-65
2022/05/05 02:40:41;;;;;;;11.35;6.40;;;8.00;99.90;;;;;;5018481;28;20037;-65
2022/05/05 02:43:06;;;;;;;13.32;5.25;;;8.00;99.90;;;;;;5017849;28;20049;-65
2022/05/05 02:45:32;;;;;;;11.27;4.43;;;8.00;99.90;;;;;;5024383;28;20535;-66
2022/05/05 02:47:58;;;;;;;12.23;5.10;;;7.90;99.90;;;;;;5025069;28;20041;-65
2022/05/05 02:50:24;;;;;;;14.80;5.40;;;7.90;99.90;;;;;;5025810;28;20350;-66
2022/05/05 02:52:50;;;;;;;12.97;5.20;;;7.90;99.90;;;;;;5023217;28;20049;-65
2022/05/05 02:55:15;;;;;;;18.60;5.20;;;7.90;99.90;;;;;;5022243;28;20041;-65
2022/05/05 02:57:41;;;;;;;12.33;5.07;;;7.80;99.90;;;;;;5023077;28;20488;-65
2022/05/05 03:00:11;;;;;;;12.90;5.60;;;7.80;99.90;;;;;;5022246;28;20364;-65
2022/05/05 03:02:37;;;;;;;12.40;4.93;;;7.80;99.90;;;;;;5008595;28;20124;-65
2022/05/05 03:05:03;;;;;;;16.55;5.40;;;7.80;99.90;;;;;;5022775;28;20042;-65
2022/05/05 03:07:28;;;;;;;15.30;6.32;;;7.80;99.90;;;;;;5024398;28;20065;-65
2022/05/05 03:09:54;;;;;;;13.37;5.40;;;7.80;99.90;;;;;;5021916;28;20393;-65
2022/05/05 03:12:20;;;;;;;13.30;5.32;;;7.70;99.90;;;;;;5020400;28;20498;-65
2022/05/05 03:14:47;;;;;;;10.47;4.87;;;7.70;99.90;;;;;;5022441;28;20037;-65
2022/05/05 03:17:13;;;;;;;10.90;5.57;;;7.60;99.90;;;;;;5024125;28;20052;-65
2022/05/05 03:19:39;;;;;;;10.60;5.72;;;7.60;99.90;;;;;;5016933;28;20045;-65
2022/05/05 03:22:05;;;;;;;10.98;5.00;;;7.60;99.90;;;;;;5016874;28;20049;-66
2022/05/05 03:24:31;;;;;;;10.33;5.00;;;7.50;99.90;;;;;;5018423;28;20087;-65
2022/05/05 03:26:57;;;;;;;9.63;6.07;;;7.50;99.90;;;;;;5015172;28;20115;-65
2022/05/05 03:29:22;;;;;;;13.60;5.68;;;7.50;99.90;;;;;;5021610;28;20089;-65
2022/05/05 03:31:48;;;;;;;11.90;6.20;;;7.50;99.90;;;;;;5021148;28;20045;-65
2022/05/05 03:34:13;;;;;;;15.20;5.83;;;7.50;99.90;;;;;;5021406;28;20033;-65
2022/05/05 03:36:39;;;;;;;10.10;5.47;;;7.40;99.90;;;;;;5021970;28;20044;-66
2022/05/05 03:39:05;;;;;;;13.97;6.03;;;7.40;99.90;;;;;;5025252;28;20037;-66
2022/05/05 03:41:31;;;;;;;15.63;5.43;;;7.40;99.90;;;;;;5020261;28;20041;-65
2022/05/05 03:43:57;;;;;;;10.00;4.85;;;7.40;99.90;;;;;;5018604;28;20045;-65
2022/05/05 03:46:22;;;;;;;15.87;5.07;;;7.40;99.90;;;;;;5022150;28;20600;-65
2022/05/05 03:48:48;;;;;;;14.00;5.30;;;7.40;99.90;;;;;;5029976;28;20037;-66
2022/05/05 03:51:14;;;;;;;11.30;5.43;;;7.40;99.90;;;;;;5026977;28;20044;-65
2022/05/05 03:53:39;;;;;;;12.40;5.43;;;7.30;99.90;;;;;;5026213;28;20045;-65
2022/05/05 03:56:05;;;;;;;8.77;4.73;;;7.30;99.90;;;;;;5028309;28;20045;-65
2022/05/05 03:58:31;;;;;;;12.67;5.50;;;7.30;99.90;;;;;;5017903;28;20064;-65
2022/05/05 04:00:57;;;;;;;12.80;4.93;;;7.30;99.90;;;;;;5017631;28;20509;-65
2022/05/05 04:03:32;;;;;;;10.23;5.27;;;7.30;99.90;;;;;;5024433;28;20037;-65
2022/05/05 04:06:03;;;;;;;12.98;5.72;;;7.30;99.90;;;;;;5024610;28;20422;-65
2022/05/05 04:08:29;;;;;;;14.43;5.60;;;7.30;99.90;;;;;;5007249;28;20034;-66
2022/05/05 04:10:55;;;;;;;11.93;6.00;;;7.20;99.90;;;;;;5011988;28;20537;-66
2022/05/05 04:13:22;;;;;;;9.85;5.15;;;7.20;99.90;;;;;;5011949;28;20030;-65
2022/05/05 04:15:48;;;;;;;11.43;5.68;;;7.20;99.90;;;;;;5018636;28;20034;-66
2022/05/05 04:18:14;;;;;;;9.00;5.65;;;7.20;99.90;;;;;;5023294;28;20048;-65
2022/05/05 04:20:43;;;;;;;13.32;5.95;;;7.20;99.90;;;;;;5025567;28;20033;-65
2022/05/05 04:23:10;;;;;;;10.98;6.00;;;7.20;99.90;;;;;;5012842;28;20037;-69
2022/05/05 04:25:40;;;;;;;19.38;7.00;;;7.20;99.90;;;;;;5022132;28;20040;-68
2022/05/05 04:28:09;;;;;;;14.07;6.00;;;7.20;99.90;;;;;;5021082;28;20060;-69
2022/05/05 04:30:36;;;;;;;13.63;5.93;;;7.10;99.90;;;;;;5020168;28;20124;-69
2022/05/05 04:33:02;;;;;;;19.65;6.88;;;7.20;99.90;;;;;;5024371;28;20458;-69
2022/05/05 04:35:27;;;;;;;10.75;6.03;;;7.10;99.90;;;;;;5020335;28;20040;-69
2022/05/05 04:37:53;;;;;;;10.03;6.30;;;7.20;99.90;;;;;;5010051;28;20040;-69
2022/05/05 04:40:18;;;;;;;10.03;5.77;;;7.20;99.90;;;;;;5017496;28;20808;-69
2022/05/05 04:42:44;;;;;;;12.03;5.37;;;7.20;99.90;;;;;;5018709;28;20084;-69
2022/05/05 04:45:11;;;;;;;15.30;6.00;;;7.20;99.90;;;;;;5020961;28;20433;-69
2022/05/05 04:47:37;;;;;;;;;;;7.20;99.90;;;;;;5015815;28;20045;-68
2022/05/05 04:50:03;;;;;;;16.00;5.97;;;7.20;99.90;;;;;;5018171;28;19931;-69
2022/05/05 04:52:29;;;;;;;11.30;5.78;;;7.20;99.90;;;;;;5018947;28;20274;-69
2022/05/05 04:54:54;;;;;;;11.60;6.13;;;7.20;99.90;;;;;;5024771;28;20544;-69
2022/05/05 04:57:20;;;;;;;11.57;6.10;;;7.20;99.90;;;;;;5016436;28;20037;-69
2022/05/05 04:59:45;;;;;;;10.30;6.20;;;7.20;99.90;;;;;;5019220;28;20544;-69
2022/05/05 05:02:11;;;;;;;9.20;5.63;;;7.30;99.90;;;;;;5018311;28;20053;-69
2022/05/05 05:04:37;;;;;;;11.67;6.00;;;7.30;99.90;;;;;;5014453;28;20516;-69
2022/05/05 05:07:02;;;;;;;10.13;6.10;;;7.30;99.90;;;;;;5008332;28;20119;-69
2022/05/05 05:09:28;;;;;;;11.87;6.50;;;7.30;99.90;;;;;;5019293;28;20136;-69
2022/05/05 05:11:54;;;;;;;10.15;5.50;;;7.40;99.90;;;;;;5015777;28;20300;-69
2022/05/05 05:14:20;;;;;;;14.30;7.30;;;7.40;99.90;;;;;;5025951;28;20036;-69
2022/05/05 05:16:45;;;;;;;12.50;6.10;;;7.40;99.90;;;;;;5014979;28;20038;-69
2022/05/05 05:19:11;;;;;;;17.20;6.13;;;7.40;99.90;;;;;;5020948;28;20045;-69
2022/05/05 05:21:36;;;;;;;15.73;7.37;;;7.50;99.90;;;;;;5015936;28;20125;-69
2022/05/05 05:24:02;;;;;;;14.60;7.03;;;7.50;99.90;;;;;;5019275;28;20076;-69
2022/05/05 05:26:28;;;;;;;17.53;6.43;;;7.50;99.90;;;;;;5017086;28;20041;-69
2022/05/05 05:28:54;;;;;;;10.68;6.32;;;7.60;99.90;;;;;;5021866;28;20087;-69
2022/05/05 05:31:21;;;;;;;10.57;6.40;;;7.60;99.90;;;;;;5018538;28;20049;-69
2022/05/05 05:33:47;;;;;;;13.80;6.78;;;7.60;99.90;;;;;;5020409;28;20033;-69
2022/05/05 05:36:13;;;;;;;11.73;6.65;;;7.60;99.90;;;;;;5014793;28;20029;-69
2022/05/05 05:38:39;;;;;;;12.93;6.57;;;7.70;99.90;;;;;;5013091;28;20486;-68
2022/05/05 05:41:04;;;;;;;15.83;7.17;;;7.80;99.90;;;;;;5012457;28;20762;-68
2022/05/05 05:43:30;;;;;;;17.87;8.70;;;7.80;99.90;;;;;;5023722;28;20140;-68
2022/05/05 05:45:55;;;;;;;28.10;8.53;;;7.80;99.90;;;;;;5018440;28;20063;-75
2022/05/05 05:48:23;;;;;;;15.50;7.53;;;7.90;99.90;;;;;;5025667;28;20076;-71
2022/05/05 05:50:49;;;;;;;15.98;8.02;;;7.90;99.90;;;;;;5009090;28;20049;-70
2022/05/05 05:53:15;;;;;;;18.53;7.87;;;8.00;99.90;;;;;;5025632;28;20041;-70
2022/05/05 05:55:41;;;;;;;13.90;6.78;;;8.10;99.90;;;;;;5022332;28;20041;-70
2022/05/05 05:58:06;;;;;;;14.07;7.00;;;8.10;99.90;;;;;;5024328;28;20040;-71
2022/05/05 06:00:32;;;;;;;18.00;8.60;;;8.20;99.90;;;;;;5020162;28;20401;-69
2022/05/05 06:05:45;;;;;;;14.98;7.45;;;8.30;99.90;;;;;;5018927;28;20513;-70
2022/05/05 06:08:11;;;;;;;12.13;7.00;;;8.40;99.90;;;;;;5007287;28;20033;-71
2022/05/05 06:10:37;;;;;;;21.17;7.77;;;8.50;99.90;;;;;;5012595;28;20112;-68
2022/05/05 06:13:03;;;;;;;11.83;7.27;;;8.60;99.90;;;;;;5018694;28;20034;-68
2022/05/05 06:15:29;;;;;;;16.17;7.85;;;8.60;99.90;;;;;;5021773;28;20037;-69
2022/05/05 06:17:54;;;;;;;14.80;7.15;;;8.70;99.90;;;;;;5017340;28;20036;-69
2022/05/05 06:20:20;;;;;;;13.57;6.73;;;8.80;99.90;;;;;;5013453;28;20090;-69
2022/05/05 06:22:46;;;;;;;13.43;6.90;;;8.90;99.90;;;;;;5014847;28;20037;-69
2022/05/05 06:25:12;;;;;;;14.27;8.07;;;9.00;99.90;;;;;;5003309;28;20033;-69
2022/05/05 06:27:39;;;;;;;14.50;6.60;;;9.10;99.90;;;;;;5101836;22;20105;-67
2022/05/05 06:30:06;;;;;;;15.65;7.47;;;9.20;99.90;;;;;;5031841;28;20136;-68
2022/05/05 06:32:32;;;;;;;15.63;7.22;;;9.30;99.90;;;;;;5012314;28;20048;-71
2022/05/05 06:34:57;;;;;;;17.87;7.40;;;9.30;99.90;;;;;;5022951;28;20490;-67
2022/05/05 06:37:24;;;;;;;15.80;7.55;;;9.40;99.90;;;;;;5035635;28;20053;-67
2022/05/05 06:39:50;;;;;;;15.85;6.90;;;9.50;99.90;;;;;;5033323;28;20049;-68
2022/05/05 06:42:16;;;;;;;12.77;6.72;;;9.60;99.90;;;;;;5039852;28;20045;-67
2022/05/05 06:44:42;;;;;;;13.60;7.13;;;9.70;99.90;;;;;;5045517;28;20561;-67
2022/05/05 06:47:08;;;;;;;14.20;8.48;;;9.80;99.90;;;;;;5043734;28;20041;-67
2022/05/05 06:49:34;;;;;;;16.07;7.33;;;9.90;99.90;;;;;;5042693;28;20417;-67
2022/05/05 06:51:59;;;;;;;14.93;7.60;;;9.90;99.90;;;;;;5044741;28;20223;-67
2022/05/05 06:54:26;;;;;;;13.50;7.10;;;10.00;99.90;;;;;;5047326;28;20112;-67
2022/05/05 06:56:52;;;;;;;11.02;6.30;;;10.10;99.90;;;;;;5048782;28;20044;-67
2022/05/05 06:59:17;;;;;;;14.50;8.07;;;10.20;99.90;;;;;;5046236;28;20131;-67
2022/05/05 07:01:52;;;;;;;20.10;7.00;;;10.20;99.90;;;;;;5047018;28;20063;-67
2022/05/05 07:07:03;;;;;;;15.98;6.75;;;10.40;99.90;;;;;;5018472;28;20509;-67
2022/05/05 07:12:12;;;;;;;12.80;6.07;;;10.60;99.90;;;;;;5038760;28;20067;-68
2022/05/05 07:14:38;;;;;;;18.03;7.73;;;10.70;99.90;;;;;;5042556;28;20082;-67
2022/05/05 07:17:04;;;;;;;14.73;7.00;;;10.80;99.90;;;;;;5027201;28;20480;-67
2022/05/05 07:19:29;;;;;;;13.52;8.35;;;10.90;99.90;;;;;;5046107;28;20192;-67
2022/05/05 07:21:55;;;;;;;15.07;6.23;;;11.00;99.90;;;;;;5040406;28;20350;-67
2022/05/05 07:24:20;;;;;;;10.03;5.87;;;11.10;99.90;;;;;;5008507;28;20056;-67
2022/05/05 07:26:46;;;;;;;13.87;6.03;;;11.20;99.90;;;;;;5048893;28;20041;-68
2022/05/05 07:29:12;;;;;;;15.80;6.47;;;11.20;99.90;;;;;;5050844;28;20072;-68
2022/05/05 07:31:37;;;;;;;11.37;5.43;;;11.30;99.90;;;;;;5041083;28;20547;-67
2022/05/05 07:34:03;;;;;;;10.33;5.80;;;11.30;99.90;;;;;;5020916;28;20044;-68
2022/05/05 07:36:28;;;;;;;11.63;5.27;;;11.40;99.90;;;;;;5040841;28;20144;-67
2022/05/05 07:38:54;;;;;;;15.90;5.60;;;11.50;99.90;;;;;;5044073;28;20303;-67
2022/05/05 07:41:22;;;;;;;9.63;5.70;;;11.60;99.90;;;;;;5040459;28;20124;-67
2022/05/05 07:43:50;;;;;;;13.60;5.40;;;11.70;99.90;;;;;;5036332;28;21102;-67
2022/05/05 07:46:18;;;;;;;14.55;5.25;;;11.80;99.90;;;;;;5041959;28;20042;-67
2022/05/05 07:48:44;;;;;;;12.80;4.90;;;11.80;99.90;;;;;;5044188;28;20044;-67
2022/05/05 07:51:10;;;;;;;12.27;4.93;;;12.00;99.90;;;;;;5022147;28;20044;-67
2022/05/05 07:53:36;;;;;;;12.07;5.03;;;12.10;99.90;;;;;;5044356;28;20462;-67
2022/05/05 07:56:02;;;;;;;11.57;4.73;;;12.20;99.90;;;;;;5033361;28;20036;-68
2022/05/05 07:58:27;;;;;;;11.47;4.23;;;12.20;99.90;;;;;;5034015;28;20684;-67
2022/05/05 08:00:53;;;;;;;12.43;4.40;;;12.30;99.90;;;;;;5051375;28;20132;-67
2022/05/05 08:03:18;;;;;;;8.03;4.07;;;12.40;99.90;;;;;;5049334;28;20533;-67
2022/05/05 08:05:44;;;;;;;10.60;4.43;;;12.40;99.90;;;;;;5048534;28;20037;-65
2022/05/05 08:08:10;;;;;;;9.00;3.97;;;12.50;99.90;;;;;;5040989;28;20387;-66
2022/05/05 08:10:36;;;;;;;7.57;4.13;;;12.50;99.90;;;;;;5048136;28;20635;-66
2022/05/05 08:13:03;;;;;;;7.88;3.47;;;12.60;99.90;;;;;;5046292;28;20064;-66
2022/05/05 08:15:29;;;;;;;9.85;3.78;;;12.60;99.90;;;;;;5044235;28;20041;-66
2022/05/05 08:17:55;;;;;;;9.68;4.15;;;12.80;99.90;;;;;;5024727;28;20036;-66
2022/05/05 08:20:21;;;;;;;12.18;4.18;;;12.80;99.90;;;;;;5039287;28;20405;-65
2022/05/05 08:22:47;;;;;;;8.90;3.67;;;12.90;99.90;;;;;;5050081;28;20087;-65
2022/05/05 08:30:41;;;;;;;7.10;3.70;;;13.20;99.90;;;;;;5049128;28;20271;-66
2022/05/05 08:33:07;;;;;;;7.53;4.05;;;13.30;99.90;;;;;;5049562;28;20507;-66
2022/05/05 08:35:32;;;;;;;9.33;3.83;;;13.30;99.90;;;;;;5048343;28;20053;-66
2022/05/05 08:37:58;;;;;;;16.25;4.53;;;13.40;99.90;;;;;;5040303;28;20072;-66
2022/05/05 08:40:25;;;;;;;7.03;3.87;;;13.50;99.90;;;;;;5046269;28;20083;-65
2022/05/05 08:42:51;;;;;;;7.10;3.50;;;13.60;99.90;;;;;;5042849;28;20278;-66
2022/05/05 08:45:17;;;;;;;6.97;3.40;;;13.70;99.90;;;;;;5047218;28;20387;-66
2022/05/05 08:47:46;;;;;;;7.75;3.60;;;13.80;99.90;;;;;;5049914;28;20711;-66
2022/05/05 08:50:12;;;;;;;10.00;3.38;;;13.90;99.90;;;;;;5054168;28;20045;-66
2022/05/05 08:52:48;;;;;;;8.40;3.60;;;14.00;99.90;;;;;;5034708;28;20030;-66
2022/05/05 08:55:15;;;;;;;8.38;3.40;;;14.10;99.90;;;;;;5031890;28;20033;-66
2022/05/05 08:57:41;;;;;;;7.32;4.15;;;14.30;99.90;;;;;;5042858;28;20040;-66
2022/05/05 09:00:07;;;;;;;8.18;3.72;;;14.40;99.90;;;;;;5045625;28;20163;-66
2022/05/05 09:02:33;;;;;;;8.65;4.95;;;14.50;99.90;;;;;;5044443;28;20063;-66
2022/05/05 09:04:59;;;;;;;9.47;4.33;;;14.60;99.90;;;;;;5041953;28;20037;-65
2022/05/05 09:07:49;;;;;;;12.83;5.00;;;14.60;99.90;;;;;;5043023;28;20139;-65
2022/05/05 09:10:19;;;;;;;6.93;4.30;;;14.70;99.90;;;;;;5025410;28;20052;-66
2022/05/05 09:13:01;;;;;;;9.65;4.68;;;14.80;99.90;;;;;;5042293;28;20481;-66
2022/05/05 09:15:35;;;;;;;11.93;4.93;;;14.90;99.90;;;;;;5045739;28;20041;-65
2022/05/05 09:18:14;;;;;;;7.03;4.43;;;15.00;99.90;;;;;;5042127;28;20036;-65
2022/05/05 09:20:41;;;;;;;8.32;4.25;;;15.20;99.50;;;;;;5023360;28;20068;-66
2022/05/05 09:23:07;;;;;;;6.35;4.65;;;15.20;99.60;;;;;;5051139;28;20116;-66
2022/05/05 09:25:46;;;;;;;9.55;4.80;;;15.40;99.80;;;;;;5029076;28;20053;-66
2022/05/05 09:28:20;;;;;;;7.70;4.55;;;15.50;98.00;;;;;;5033038;28;20072;-66
2022/05/05 09:30:51;;;;;;;8.60;4.95;;;15.60;96.20;;;;;;5028981;28;20071;-66
2022/05/05 09:33:35;;;;;;;8.75;4.82;;;15.60;95.20;;;;;;5028483;28;20047;-70
2022/05/05 09:36:09;;;;;;;13.05;4.78;;;15.60;94.90;;;;;;5026995;28;20417;-65
2022/05/05 09:39:00;;;;;;;10.38;4.85;;;15.50;92.20;;;;;;5019174;28;20043;-66
2022/05/05 09:41:32;;;;;;;8.90;4.65;;;15.50;94.90;;;;;;5036306;28;20067;-66
2022/05/05 09:44:00;;;;;;;8.40;4.55;;;15.60;97.00;;;;;;5046060;28;20133;-66
2022/05/05 09:46:33;;;;;;;8.68;4.18;;;15.80;96.70;;;;;;5008268;28;20053;-66
2022/05/05 09:49:08;;;;;;;9.57;5.20;;;16.00;95.50;;;;;;5024828;28;20049;-66
2022/05/05 09:51:46;;;;;;;10.57;5.25;;;16.10;93.40;;;;;;5023335;28;20049;-66
2022/05/05 10:05:49;;;;;;;13.60;6.07;;;16.00;88.10;;;;;;5025863;28;20060;-66
2022/05/05 10:08:21;;;;;;;9.05;5.82;;;16.00;90.00;;;;;;5043009;28;20098;-66
2022/05/05 10:10:46;;;;;;;12.20;6.00;;;16.00;90.10;;;;;;5023711;28;20052;-66
2022/05/05 10:13:13;;;;;;;9.07;5.22;;;16.10;90.30;;;;;;5025591;28;20304;-66
2022/05/05 10:15:39;;;;;;;9.77;5.55;;;16.20;90.70;;;;;;5044503;28;20041;-66
2022/05/05 10:18:05;;;;;;;;;;;16.20;90.10;;;;;;5041997;28;20039;-66
2022/05/05 10:20:32;;;;;;;14.27;5.78;;;16.40;88.10;;;;;;5020823;28;19916;-66
2022/05/05 10:23:30;;;;;;;10.30;5.60;;;16.50;87.10;;;;;;5026668;28;20582;-66
2022/05/05 10:25:56;;;;;;;12.25;5.88;;;16.60;86.80;;;;;;5036549;28;20151;-66
2022/05/05 10:28:39;;;;;;;10.15;5.85;;;16.70;88.80;;;;;;5038523;28;20401;-66
2022/05/05 10:31:28;;;;;;;10.63;5.30;;;16.80;90.30;;;;;;5037837;28;20059;-65
2022/05/05 10:34:02;;;;;;;10.35;5.90;;;17.00;90.10;;;;;;5042031;28;20044;-66
2022/05/05 10:36:31;;;;;;;11.07;6.20;;;17.10;84.00;;;;;;5038950;28;20374;-66
2022/05/05 10:38:57;;;;;;;12.35;6.10;;;17.00;79.60;;;;;;5037512;28;20495;-66
2022/05/05 10:41:41;;;;;;;12.35;6.28;;;16.90;80.80;;;;;;5013006;28;20044;-66
2022/05/05 10:44:16;;;;;;;11.70;5.85;;;16.90;85.00;;;;;;5034210;28;20132;-66
2022/05/05 10:47:02;;;;;;;10.07;5.78;;;17.00;85.00;;;;;;5039076;28;20041;-66
2022/05/05 10:49:42;;;;;;;11.85;6.43;;;17.10;82.10;;;;;;5041700;28;20556;-66
2022/05/05 10:52:10;;;;;;;11.77;6.60;;;17.10;83.10;;;;;;5042931;28;20036;-66
2022/05/05 10:54:36;;;;;;;10.05;5.50;;;17.20;85.20;;;;;;5037724;28;20501;-66
2022/05/05 10:57:41;;;;;;;10.77;5.87;;;17.30;85.70;;;;;;5043164;28;20037;-68
2022/05/05 11:00:13;;;;;;;11.80;6.20;;;17.40;82.00;;;;;;4926754;29;20749;-66
2022/05/05 11:02:57;;;;;;;11.13;5.70;;;17.50;83.80;;;;;;4922818;29;20329;-66
2022/05/05 11:05:28;;;;;;;8.95;5.70;;;17.50;80.30;;;;;;5002250;28;20322;-66
2022/05/05 11:08:09;;;;;;;12.65;6.28;;;17.60;82.50;;;;;;5018737;28;20493;-66
2022/05/05 11:10:41;;;;;;;10.60;5.65;;;17.70;79.30;;;;;;5033873;28;20040;-67
2022/05/05 11:13:07;;;;;;;12.05;5.55;;;17.80;76.40;;;;;;5019060;28;20091;-66
2022/05/05 11:21:33;;;;;;;15.98;6.95;;;17.90;74.70;;;;;;5040569;28;20036;-66
2022/05/05 11:24:00;;;;;;;10.52;5.82;;;17.90;72.70;;;;;;5037596;28;20041;-66
2022/05/05 11:26:27;;;;;;;9.73;5.97;;;17.90;77.00;;;;;;5041824;28;20045;-66
2022/05/05 11:28:53;;;;;;;12.55;6.25;;;18.00;76.20;;;;;;5044593;28;20084;-66
2022/05/05 11:31:20;;;;;;;;;;;18.10;74.60;;;;;;5045415;28;20101;-66
2022/05/05 11:33:56;;;;;;;8.23;4.53;;;18.10;72.40;;;;;;5037283;28;19916;-67
2022/05/05 11:36:41;;;;;;;12.32;5.80;;;18.20;73.90;;;;;;5035847;28;20095;-67
2022/05/05 11:39:09;;;;;;;13.45;6.15;;;18.30;71.40;;;;;;5035287;28;20084;-67
2022/05/05 11:41:35;;;;;;;10.48;5.70;;;18.30;72.00;;;;;;5030845;28;20037;-66
2022/05/05 11:44:17;;;;;;;11.50;5.55;;;18.30;72.70;;;;;;5040256;28;20067;-66
2022/05/05 11:46:44;;;;;;;9.55;5.78;;;18.40;72.20;;;;;;5042773;28;20041;-66
2022/05/05 11:49:10;;;;;;;8.20;4.75;;;18.40;71.50;;;;;;5038488;28;20190;-66
2022/05/05 11:51:36;;;;;;;9.32;5.20;;;18.50;73.50;;;;;;5018534;28;20136;-67
2022/05/05 11:54:08;;;;;;;13.50;5.88;;;18.60;73.60;;;;;;5036730;28;20045;-67
2022/05/05 11:56:35;;;;;;;10.25;5.47;;;18.60;70.70;;;;;;5022973;28;20045;-66
2022/05/05 12:02:12;;;;;;;8.88;4.75;;;18.70;69.30;;;;;;5023792;28;20045;-66
2022/05/05 12:04:43;;;;;;;11.05;5.80;;;18.80;71.50;;;;;;5013319;28;20436;-66
2022/05/05 12:07:12;;;;;;;14.95;5.55;;;18.80;68.90;;;;;;5013049;28;20430;-66
2022/05/05 12:09:38;;;;;;;8.50;5.22;;;18.80;70.60;;;;;;5010707;28;20048;-66
2022/05/05 12:12:17;;;;;;;15.43;6.32;;;18.90;71.40;;;;;;5034778;28;20444;-67
2022/05/05 12:14:47;;;;;;;8.45;5.20;;;19.00;69.30;;;;;;5040565;28;20253;-67
2022/05/05 12:17:16;;;;;;;12.18;5.80;;;19.10;68.70;;;;;;5042317;28;20055;-67
2022/05/05 12:19:48;;;;;;;9.60;5.03;;;19.20;68.50;;;;;;5024006;28;20056;-66
2022/05/05 12:22:18;;;;;;;11.50;5.80;;;19.30;67.20;;;;;;5037651;28;20064;-66
2022/05/05 12:24:47;;;;;;;11.77;5.30;;;19.50;67.30;;;;;;5041676;28;20082;-66
2022/05/05 12:27:13;;;;;;;10.27;4.80;;;19.60;66.10;;;;;;5041992;28;20334;-67
2022/05/05 12:30:01;;;;;;;7.10;4.93;;;19.70;64.80;;;;;;5073876;22;20048;-83
2022/05/05 12:32:27;;;;;;;8.23;4.20;;;19.80;64.00;;;;;;5027592;28;20279;-84
2022/05/05 12:35:10;;;;;;;7.70;4.78;;;19.80;63.20;;;;;;5023909;28;20705;-84
2022/05/05 12:37:39;;;;;;;9.63;5.25;;;19.70;61.90;;;;;;5024399;28;20049;-84
2022/05/05 12:40:09;;;;;;;8.43;4.28;;;19.50;62.40;;;;;;4983266;28;20034;-84
2022/05/05 12:42:39;;;;;;;8.88;3.90;;;19.50;62.80;;;;;;5023417;28;20046;-83
2022/05/05 12:45:08;;;;;;;10.48;4.47;;;19.40;62.50;;;;;;4998354;28;20034;-84
2022/05/05 12:47:39;;;;;;;7.53;4.40;;;19.30;62.00;;;;;;5010797;28;20038;-83
2022/05/05 12:50:06;;;;;;;9.40;5.93;;;19.30;62.30;;;;;;5008692;28;20562;-84
2022/05/05 13:00:53;;;;;;;7.07;3.97;;;19.40;63.50;;;;;;5014045;28;20052;-84
2022/05/05 13:03:21;;;;;;;7.68;4.70;;;19.60;63.30;;;;;;4988054;28;20144;-84
2022/05/05 13:05:47;;;;;;;7.47;4.72;;;19.60;63.10;;;;;;4991139;28;20514;-83
2022/05/05 13:08:13;;;;;;;9.07;4.68;;;19.70;63.30;;;;;;4993986;28;20037;-83
2022/05/05 13:10:39;;;;;;;10.45;5.20;;;19.70;62.80;;;;;;5012618;28;20510;-82
2022/05/05 13:13:07;;;;;;;9.68;4.60;;;19.60;62.40;;;;;;4976335;28;20034;-84
2022/05/05 13:15:33;;;;;;;9.23;4.43;;;19.50;62.00;;;;;;5003054;28;20044;-84
2022/05/05 13:18:07;;;;;;;6.80;3.80;;;19.50;61.90;;;;;;5020250;28;20214;-83
2022/05/05 13:20:33;;;;;;;10.40;4.72;;;19.60;63.00;;;;;;5006949;28;20546;-83
2022/05/05 13:23:00;;;;;;;;;;;19.60;60.40;;;;;;4997717;28;20464;-83
2022/05/05 13:25:28;;;;;;;9.95;5.15;;;19.60;62.30;;;;;;5012312;28;19917;-83
2022/05/05 13:27:54;;;;;;;7.28;4.30;;;19.70;62.00;;;;;;5005867;28;20044;-85
2022/05/05 13:30:22;;;;;;;9.07;4.57;;;19.60;60.10;;;;;;4991228;28;20042;-84
2022/05/05 13:32:50;;;;;;;7.13;4.30;;;19.50;59.50;;;;;;5007523;28;20176;-84
2022/05/05 13:35:18;;;;;;;6.35;4.43;;;19.50;60.90;;;;;;5003685;28;20033;-84
2022/05/05 13:37:47;;;;;;;10.38;4.75;;;19.50;61.10;;;;;;4992108;28;20065;-84
2022/05/05 13:40:15;;;;;;;7.18;4.57;;;19.40;61.00;;;;;;5007565;28;20056;-84
2022/05/05 13:42:44;;;;;;;7.85;4.60;;;19.40;61.60;;;;;;5004836;28;20057;-82
2022/05/05 13:45:10;;;;;;;12.95;5.95;;;19.40;62.30;;;;;;5001814;28;20052;-85